sensor_id;sensor_type;location;lat;lon;timestamp;P1;durP1;ratioP1;P2;durP2;ratioP2
13083;SDS011;6608;48.790;9.198;2023-04-06T00:01:00;113.17;;;55.80;;
13083;SDS011;6608;48.790;9.198;2023-04-06T00:03:27;107.70;;;54.47;;
13083;SDS011;6608;48.790;9.198;2023-04-06T00:05:53;111.03;;;55.67;;
13083;SDS011;6608;48.790;9.198;2023-04-06T00:08:20;111.27;;;54.80;;
13083;SDS011;6608;48.790;9.198;2023-04-06T00:10:48;107.73;;;54.60;;
13083;SDS011;6608;48.790;9.198;2023-04-06T00:13:15;111.47;;;54.27;;
13083;SDS011;6608;48.790;9.198;2023-04-06T00:15:43;110.97;;;54.27;;
13083;SDS011;6608;48.790;9.198;2023-04-06T00:18:09;115.30;;;54.63;;
13083;SDS011;6608;48.790;9.198;2023-04-06T00:20:36;105.63;;;54.00;;
13083;SDS011;6608;48.790;9.198;2023-04-06T00:23:02;106.43;;;54.27;;
13083;SDS011;6608;48.790;9.198;2023-04-06T00:25:29;105.17;;;54.20;;
13083;SDS011;6608;48.790;9.198;2023-04-06T00:27:55;107.77;;;54.43;;
13083;SDS011;6608;48.790;9.198;2023-04-06T00:30:22;105.90;;;54.47;;
13083;SDS011;6608;48.790;9.198;2023-04-06T00:32:50;107.20;;;54.67;;
13083;SDS011;6608;48.790;9.198;2023-04-06T00:35:16;107.47;;;55.17;;
13083;SDS011;6608;48.790;9.198;2023-04-06T00:37:42;107.63;;;53.90;;
13083;SDS011;6608;48.790;9.198;2023-04-06T00:40:09;107.40;;;53.50;;
13083;SDS011;6608;48.790;9.198;2023-04-06T00:42:36;102.83;;;52.57;;
13083;SDS011;6608;48.790;9.198;2023-04-06T00:45:02;102.27;;;51.80;;
13083;SDS011;6608;48.790;9.198;2023-04-06T00:47:29;103.40;;;52.13;;
13083;SDS011;6608;48.790;9.198;2023-04-06T00:49:57;100.93;;;51.73;;
13083;SDS011;6608;48.790;9.198;2023-04-06T00:52:23;106.77;;;54.60;;
13083;SDS011;6608;48.790;9.198;2023-04-06T00:54:50;109.07;;;54.27;;
13083;SDS011;6608;48.790;9.198;2023-04-06T00:57:16;107.80;;;54.53;;
13083;SDS011;6608;48.790;9.198;2023-04-06T00:59:43;111.60;;;55.67;;
13083;SDS011;6608;48.790;9.198;2023-04-06T01:02:10;109.30;;;54.40;;
13083;SDS011;6608;48.790;9.198;2023-04-06T01:04:36;105.13;;;54.13;;
13083;SDS011;6608;48.790;9.198;2023-04-06T01:07:04;109.87;;;55.47;;
13083;SDS011;6608;48.790;9.198;2023-04-06T01:09:31;112.27;;;55.07;;
13083;SDS011;6608;48.790;9.198;2023-04-06T01:11:57;115.07;;;55.13;;
13083;SDS011;6608;48.790;9.198;2023-04-06T01:14:24;107.23;;;55.87;;
13083;SDS011;6608;48.790;9.198;2023-04-06T01:16:51;109.83;;;55.57;;
13083;SDS011;6608;48.790;9.198;2023-04-06T01:19:17;109.00;;;55.60;;
13083;SDS011;6608;48.790;9.198;2023-04-06T01:21:45;109.93;;;56.17;;
13083;SDS011;6608;48.790;9.198;2023-04-06T01:24:15;111.70;;;56.27;;
13083;SDS011;6608;48.790;9.198;2023-04-06T01:26:42;108.80;;;55.33;;
13083;SDS011;6608;48.790;9.198;2023-04-06T01:29:09;108.67;;;56.33;;
13083;SDS011;6608;48.790;9.198;2023-04-06T01:31:35;106.37;;;55.27;;
13083;SDS011;6608;48.790;9.198;2023-04-06T01:34:02;108.77;;;56.23;;
13083;SDS011;6608;48.790;9.198;2023-04-06T01:36:28;107.37;;;54.50;;
13083;SDS011;6608;48.790;9.198;2023-04-06T01:38:55;111.07;;;56.30;;
13083;SDS011;6608;48.790;9.198;2023-04-06T01:41:22;109.17;;;56.13;;
13083;SDS011;6608;48.790;9.198;2023-04-06T01:43:49;107.33;;;55.93;;
13083;SDS011;6608;48.790;9.198;2023-04-06T01:46:19;116.47;;;56.43;;
13083;SDS011;6608;48.790;9.198;2023-04-06T01:48:45;109.93;;;56.83;;
13083;SDS011;6608;48.790;9.198;2023-04-06T01:51:12;109.90;;;55.80;;
13083;SDS011;6608;48.790;9.198;2023-04-06T01:53:38;104.97;;;54.87;;
13083;SDS011;6608;48.790;9.198;2023-04-06T01:56:05;114.40;;;56.27;;
13083;SDS011;6608;48.790;9.198;2023-04-06T01:58:33;107.30;;;55.20;;
13083;SDS011;6608;48.790;9.198;2023-04-06T02:01:00;106.63;;;55.63;;
13083;SDS011;6608;48.790;9.198;2023-04-06T02:03:26;108.17;;;55.87;;
13083;SDS011;6608;48.790;9.198;2023-04-06T02:05:53;108.07;;;56.80;;
13083;SDS011;6608;48.790;9.198;2023-04-06T02:08:19;108.20;;;56.33;;
13083;SDS011;6608;48.790;9.198;2023-04-06T02:10:46;108.33;;;56.20;;
13083;SDS011;6608;48.790;9.198;2023-04-06T02:13:12;106.90;;;56.37;;
13083;SDS011;6608;48.790;9.198;2023-04-06T02:15:40;106.20;;;56.67;;
13083;SDS011;6608;48.790;9.198;2023-04-06T02:18:07;107.83;;;56.10;;
13083;SDS011;6608;48.790;9.198;2023-04-06T02:20:34;108.97;;;56.13;;
13083;SDS011;6608;48.790;9.198;2023-04-06T02:23:01;105.47;;;55.70;;
13083;SDS011;6608;48.790;9.198;2023-04-06T02:25:27;107.13;;;56.37;;
13083;SDS011;6608;48.790;9.198;2023-04-06T02:27:54;105.03;;;54.93;;
13083;SDS011;6608;48.790;9.198;2023-04-06T02:30:20;104.13;;;54.90;;
13083;SDS011;6608;48.790;9.198;2023-04-06T02:32:48;106.63;;;55.23;;
13083;SDS011;6608;48.790;9.198;2023-04-06T02:35:15;108.70;;;55.93;;
13083;SDS011;6608;48.790;9.198;2023-04-06T02:37:41;110.60;;;56.37;;
13083;SDS011;6608;48.790;9.198;2023-04-06T02:40:08;110.63;;;55.57;;
13083;SDS011;6608;48.790;9.198;2023-04-06T02:42:35;106.27;;;55.83;;
13083;SDS011;6608;48.790;9.198;2023-04-06T02:45:01;107.37;;;55.50;;
13083;SDS011;6608;48.790;9.198;2023-04-06T02:47:28;105.47;;;54.53;;
13083;SDS011;6608;48.790;9.198;2023-04-06T02:49:56;107.97;;;56.17;;
13083;SDS011;6608;48.790;9.198;2023-04-06T02:52:22;104.57;;;55.57;;
13083;SDS011;6608;48.790;9.198;2023-04-06T02:54:49;104.67;;;54.80;;
13083;SDS011;6608;48.790;9.198;2023-04-06T02:57:16;103.77;;;55.47;;
13083;SDS011;6608;48.790;9.198;2023-04-06T02:59:42;105.27;;;55.53;;
13083;SDS011;6608;48.790;9.198;2023-04-06T03:02:09;105.97;;;55.37;;
13083;SDS011;6608;48.790;9.198;2023-04-06T03:04:35;103.10;;;54.83;;
13083;SDS011;6608;48.790;9.198;2023-04-06T03:07:03;103.60;;;55.27;;
13083;SDS011;6608;48.790;9.198;2023-04-06T03:09:30;105.07;;;55.87;;
13083;SDS011;6608;48.790;9.198;2023-04-06T03:11:56;105.97;;;55.40;;
13083;SDS011;6608;48.790;9.198;2023-04-06T03:14:23;110.77;;;55.73;;
13083;SDS011;6608;48.790;9.198;2023-04-06T03:16:50;104.63;;;54.93;;
13083;SDS011;6608;48.790;9.198;2023-04-06T03:19:16;106.57;;;55.50;;
13083;SDS011;6608;48.790;9.198;2023-04-06T03:21:43;108.87;;;55.97;;
13083;SDS011;6608;48.790;9.198;2023-04-06T03:24:11;101.33;;;54.20;;
13083;SDS011;6608;48.790;9.198;2023-04-06T03:26:38;103.43;;;55.27;;
13083;SDS011;6608;48.790;9.198;2023-04-06T03:29:05;103.33;;;54.83;;
13083;SDS011;6608;48.790;9.198;2023-04-06T03:31:31;106.03;;;56.00;;
13083;SDS011;6608;48.790;9.198;2023-04-06T03:33:58;103.07;;;55.03;;
13083;SDS011;6608;48.790;9.198;2023-04-06T03:36:25;99.50;;;53.20;;
13083;SDS011;6608;48.790;9.198;2023-04-06T03:38:51;104.57;;;55.77;;
13083;SDS011;6608;48.790;9.198;2023-04-06T03:41:20;105.77;;;56.13;;
13083;SDS011;6608;48.790;9.198;2023-04-06T03:43:47;101.33;;;53.77;;
13083;SDS011;6608;48.790;9.198;2023-04-06T03:46:13;104.10;;;55.80;;
13083;SDS011;6608;48.790;9.198;2023-04-06T03:48:40;101.93;;;54.87;;
13083;SDS011;6608;48.790;9.198;2023-04-06T03:51:07;102.27;;;54.20;;
13083;SDS011;6608;48.790;9.198;2023-04-06T03:53:33;104.10;;;55.60;;
13083;SDS011;6608;48.790;9.198;2023-04-06T03:56:01;104.37;;;55.47;;
13083;SDS011;6608;48.790;9.198;2023-04-06T03:58:29;106.00;;;55.37;;
13083;SDS011;6608;48.790;9.198;2023-04-06T04:00:56;102.33;;;55.03;;
13083;SDS011;6608;48.790;9.198;2023-04-06T04:03:22;108.63;;;56.20;;
13083;SDS011;6608;48.790;9.198;2023-04-06T04:05:52;99.73;;;53.97;;
13083;SDS011;6608;48.790;9.198;2023-04-06T04:08:18;108.93;;;54.87;;
13083;SDS011;6608;48.790;9.198;2023-04-06T04:10:45;102.17;;;55.10;;
13083;SDS011;6608;48.790;9.198;2023-04-06T04:13:11;101.70;;;55.33;;
13083;SDS011;6608;48.790;9.198;2023-04-06T04:15:39;106.77;;;55.87;;
13083;SDS011;6608;48.790;9.198;2023-04-06T04:18:05;108.63;;;55.70;;
13083;SDS011;6608;48.790;9.198;2023-04-06T04:20:32;100.23;;;54.80;;
13083;SDS011;6608;48.790;9.198;2023-04-06T04:22:59;100.70;;;55.00;;
13083;SDS011;6608;48.790;9.198;2023-04-06T04:25:25;101.37;;;54.50;;
13083;SDS011;6608;48.790;9.198;2023-04-06T04:27:52;101.27;;;54.87;;
13083;SDS011;6608;48.790;9.198;2023-04-06T04:30:18;102.10;;;54.97;;
13083;SDS011;6608;48.790;9.198;2023-04-06T04:32:46;103.43;;;55.43;;
13083;SDS011;6608;48.790;9.198;2023-04-06T04:35:13;102.07;;;55.13;;
13083;SDS011;6608;48.790;9.198;2023-04-06T04:37:40;106.27;;;56.40;;
13083;SDS011;6608;48.790;9.198;2023-04-06T04:40:07;100.50;;;54.07;;
13083;SDS011;6608;48.790;9.198;2023-04-06T04:42:33;101.53;;;54.80;;
13083;SDS011;6608;48.790;9.198;2023-04-06T04:45:00;104.90;;;55.87;;
13083;SDS011;6608;48.790;9.198;2023-04-06T04:47:26;106.43;;;55.73;;
13083;SDS011;6608;48.790;9.198;2023-04-06T04:49:54;105.17;;;54.97;;
13083;SDS011;6608;48.790;9.198;2023-04-06T04:52:21;100.10;;;54.80;;
13083;SDS011;6608;48.790;9.198;2023-04-06T04:54:47;102.97;;;56.03;;
13083;SDS011;6608;48.790;9.198;2023-04-06T04:57:14;104.20;;;55.17;;
13083;SDS011;6608;48.790;9.198;2023-04-06T04:59:40;106.60;;;55.13;;
13083;SDS011;6608;48.790;9.198;2023-04-06T05:02:06;102.63;;;55.80;;
13083;SDS011;6608;48.790;9.198;2023-04-06T05:04:33;99.50;;;54.03;;
13083;SDS011;6608;48.790;9.198;2023-04-06T05:07:05;103.73;;;56.30;;
13083;SDS011;6608;48.790;9.198;2023-04-06T05:09:32;103.27;;;54.63;;
13083;SDS011;6608;48.790;9.198;2023-04-06T05:11:58;102.13;;;54.50;;
13083;SDS011;6608;48.790;9.198;2023-04-06T05:14:25;102.40;;;54.70;;
13083;SDS011;6608;48.790;9.198;2023-04-06T05:16:51;105.40;;;55.00;;
13083;SDS011;6608;48.790;9.198;2023-04-06T05:19:18;102.10;;;55.03;;
13083;SDS011;6608;48.790;9.198;2023-04-06T05:21:44;104.00;;;55.40;;
13083;SDS011;6608;48.790;9.198;2023-04-06T05:24:13;100.57;;;55.00;;
13083;SDS011;6608;48.790;9.198;2023-04-06T05:26:39;103.43;;;54.53;;
13083;SDS011;6608;48.790;9.198;2023-04-06T05:29:06;109.57;;;56.80;;
13083;SDS011;6608;48.790;9.198;2023-04-06T05:31:32;102.73;;;54.47;;
13083;SDS011;6608;48.790;9.198;2023-04-06T05:33:59;113.17;;;62.17;;
13083;SDS011;6608;48.790;9.198;2023-04-06T05:36:25;103.87;;;56.37;;
13083;SDS011;6608;48.790;9.198;2023-04-06T05:38:52;104.00;;;54.23;;
13083;SDS011;6608;48.790;9.198;2023-04-06T05:41:21;106.00;;;56.17;;
13083;SDS011;6608;48.790;9.198;2023-04-06T05:43:48;106.90;;;56.27;;
13083;SDS011;6608;48.790;9.198;2023-04-06T05:46:14;101.07;;;55.10;;
13083;SDS011;6608;48.790;9.198;2023-04-06T05:48:41;101.93;;;54.90;;
13083;SDS011;6608;48.790;9.198;2023-04-06T05:51:07;103.23;;;55.20;;
13083;SDS011;6608;48.790;9.198;2023-04-06T05:53:34;104.07;;;56.13;;
13083;SDS011;6608;48.790;9.198;2023-04-06T05:56:00;106.47;;;56.57;;
13083;SDS011;6608;48.790;9.198;2023-04-06T05:58:28;106.17;;;55.00;;
13083;SDS011;6608;48.790;9.198;2023-04-06T06:00:56;107.43;;;55.90;;
13083;SDS011;6608;48.790;9.198;2023-04-06T06:03:22;106.23;;;55.83;;
13083;SDS011;6608;48.790;9.198;2023-04-06T06:05:49;105.97;;;56.10;;
13083;SDS011;6608;48.790;9.198;2023-04-06T06:08:15;109.27;;;56.80;;
13083;SDS011;6608;48.790;9.198;2023-04-06T06:10:42;110.40;;;57.70;;
13083;SDS011;6608;48.790;9.198;2023-04-06T06:13:09;114.37;;;57.30;;
13083;SDS011;6608;48.790;9.198;2023-04-06T06:15:37;120.77;;;59.00;;
13083;SDS011;6608;48.790;9.198;2023-04-06T06:18:04;113.37;;;57.57;;
13083;SDS011;6608;48.790;9.198;2023-04-06T06:20:30;119.33;;;56.60;;
13083;SDS011;6608;48.790;9.198;2023-04-06T06:22:56;116.37;;;58.23;;
13083;SDS011;6608;48.790;9.198;2023-04-06T06:25:23;118.23;;;58.33;;
13083;SDS011;6608;48.790;9.198;2023-04-06T06:27:50;121.97;;;58.70;;
13083;SDS011;6608;48.790;9.198;2023-04-06T06:30:16;122.73;;;59.30;;
13083;SDS011;6608;48.790;9.198;2023-04-06T06:32:44;122.67;;;59.77;;
13083;SDS011;6608;48.790;9.198;2023-04-06T06:35:11;123.60;;;60.13;;
13083;SDS011;6608;48.790;9.198;2023-04-06T06:37:37;125.40;;;60.37;;
13083;SDS011;6608;48.790;9.198;2023-04-06T06:40:04;125.03;;;60.77;;
13083;SDS011;6608;48.790;9.198;2023-04-06T06:42:31;129.50;;;61.23;;
13083;SDS011;6608;48.790;9.198;2023-04-06T06:44:57;134.67;;;63.20;;
13083;SDS011;6608;48.790;9.198;2023-04-06T06:47:24;138.03;;;62.40;;
13083;SDS011;6608;48.790;9.198;2023-04-06T06:49:52;134.90;;;61.23;;
13083;SDS011;6608;48.790;9.198;2023-04-06T06:52:19;134.50;;;63.23;;
13083;SDS011;6608;48.790;9.198;2023-04-06T06:54:45;136.33;;;64.57;;
13083;SDS011;6608;48.790;9.198;2023-04-06T06:57:11;134.83;;;62.57;;
13083;SDS011;6608;48.790;9.198;2023-04-06T06:59:38;139.77;;;61.93;;
13083;SDS011;6608;48.790;9.198;2023-04-06T07:02:05;133.93;;;61.97;;
13083;SDS011;6608;48.790;9.198;2023-04-06T07:04:31;138.80;;;63.87;;
13083;SDS011;6608;48.790;9.198;2023-04-06T07:07:00;137.37;;;63.00;;
13083;SDS011;6608;48.790;9.198;2023-04-06T07:09:26;137.87;;;64.17;;
13083;SDS011;6608;48.790;9.198;2023-04-06T07:11:53;145.77;;;70.17;;
13083;SDS011;6608;48.790;9.198;2023-04-06T07:14:21;141.50;;;63.80;;
13083;SDS011;6608;48.790;9.198;2023-04-06T07:16:47;155.80;;;71.70;;
13083;SDS011;6608;48.790;9.198;2023-04-06T07:19:15;148.53;;;67.13;;
13083;SDS011;6608;48.790;9.198;2023-04-06T07:21:41;144.47;;;64.50;;
13083;SDS011;6608;48.790;9.198;2023-04-06T07:24:10;139.20;;;64.27;;
13083;SDS011;6608;48.790;9.198;2023-04-06T07:26:36;134.57;;;62.07;;
13083;SDS011;6608;48.790;9.198;2023-04-06T07:29:16;134.30;;;63.13;;
13083;SDS011;6608;48.790;9.198;2023-04-06T07:31:43;135.17;;;62.87;;
13083;SDS011;6608;48.790;9.198;2023-04-06T07:34:10;140.40;;;65.67;;
13083;SDS011;6608;48.790;9.198;2023-04-06T07:36:36;135.30;;;61.37;;
13083;SDS011;6608;48.790;9.198;2023-04-06T07:39:02;137.67;;;64.50;;
13083;SDS011;6608;48.790;9.198;2023-04-06T07:41:37;137.67;;;64.13;;
13083;SDS011;6608;48.790;9.198;2023-04-06T07:44:03;144.40;;;65.23;;
13083;SDS011;6608;48.790;9.198;2023-04-06T07:46:30;140.90;;;63.93;;
13083;SDS011;6608;48.790;9.198;2023-04-06T07:48:56;144.43;;;65.37;;
13083;SDS011;6608;48.790;9.198;2023-04-06T07:51:23;146.27;;;67.13;;
13083;SDS011;6608;48.790;9.198;2023-04-06T07:53:50;146.80;;;65.50;;
13083;SDS011;6608;48.790;9.198;2023-04-06T07:56:17;150.23;;;68.00;;
13083;SDS011;6608;48.790;9.198;2023-04-06T07:58:47;149.00;;;67.27;;
13083;SDS011;6608;48.790;9.198;2023-04-06T08:01:13;144.77;;;67.00;;
13083;SDS011;6608;48.790;9.198;2023-04-06T08:03:40;150.30;;;65.57;;
13083;SDS011;6608;48.790;9.198;2023-04-06T08:06:06;151.07;;;66.50;;
13083;SDS011;6608;48.790;9.198;2023-04-06T08:08:33;147.47;;;66.17;;
13083;SDS011;6608;48.790;9.198;2023-04-06T08:10:59;149.17;;;66.30;;
13083;SDS011;6608;48.790;9.198;2023-04-06T08:13:27;148.67;;;67.03;;
13083;SDS011;6608;48.790;9.198;2023-04-06T08:15:55;151.43;;;66.60;;
13083;SDS011;6608;48.790;9.198;2023-04-06T08:18:22;151.60;;;68.70;;
13083;SDS011;6608;48.790;9.198;2023-04-06T08:20:49;156.83;;;67.90;;
13083;SDS011;6608;48.790;9.198;2023-04-06T08:23:15;155.63;;;69.13;;
13083;SDS011;6608;48.790;9.198;2023-04-06T08:25:41;151.80;;;68.10;;
13083;SDS011;6608;48.790;9.198;2023-04-06T08:28:08;155.17;;;68.80;;
13083;SDS011;6608;48.790;9.198;2023-04-06T08:30:35;153.57;;;68.00;;
13083;SDS011;6608;48.790;9.198;2023-04-06T08:33:03;151.13;;;67.93;;
13083;SDS011;6608;48.790;9.198;2023-04-06T08:35:30;148.37;;;66.40;;
13083;SDS011;6608;48.790;9.198;2023-04-06T08:37:56;153.67;;;67.73;;
13083;SDS011;6608;48.790;9.198;2023-04-06T08:40:23;185.97;;;87.97;;
13083;SDS011;6608;48.790;9.198;2023-04-06T08:42:52;161.23;;;75.03;;
13083;SDS011;6608;48.790;9.198;2023-04-06T08:45:18;159.87;;;72.77;;
13083;SDS011;6608;48.790;9.198;2023-04-06T08:47:46;156.33;;;67.73;;
13083;SDS011;6608;48.790;9.198;2023-04-06T08:50:14;170.63;;;70.77;;
13083;SDS011;6608;48.790;9.198;2023-04-06T08:52:42;168.83;;;76.63;;
13083;SDS011;6608;48.790;9.198;2023-04-06T08:55:09;162.53;;;71.53;;
13083;SDS011;6608;48.790;9.198;2023-04-06T08:57:35;156.83;;;69.63;;
13083;SDS011;6608;48.790;9.198;2023-04-06T09:00:02;158.37;;;69.30;;
13083;SDS011;6608;48.790;9.198;2023-04-06T09:02:29;160.77;;;69.63;;
13083;SDS011;6608;48.790;9.198;2023-04-06T09:04:56;156.57;;;68.60;;
13083;SDS011;6608;48.790;9.198;2023-04-06T09:07:24;160.57;;;70.60;;
13083;SDS011;6608;48.790;9.198;2023-04-06T09:09:50;163.27;;;71.17;;
13083;SDS011;6608;48.790;9.198;2023-04-06T09:12:23;165.90;;;70.50;;
13083;SDS011;6608;48.790;9.198;2023-04-06T09:14:50;164.67;;;70.47;;
13083;SDS011;6608;48.790;9.198;2023-04-06T09:17:20;161.93;;;70.03;;
13083;SDS011;6608;48.790;9.198;2023-04-06T09:19:47;164.97;;;71.17;;
13083;SDS011;6608;48.790;9.198;2023-04-06T09:22:13;161.57;;;69.63;;
13083;SDS011;6608;48.790;9.198;2023-04-06T09:24:42;165.10;;;70.73;;
13083;SDS011;6608;48.790;9.198;2023-04-06T09:27:08;165.93;;;68.93;;
13083;SDS011;6608;48.790;9.198;2023-04-06T09:29:35;171.37;;;73.33;;
13083;SDS011;6608;48.790;9.198;2023-04-06T09:32:03;182.53;;;73.37;;
13083;SDS011;6608;48.790;9.198;2023-04-06T09:34:30;166.33;;;69.87;;
13083;SDS011;6608;48.790;9.198;2023-04-06T09:36:56;163.50;;;68.60;;
13083;SDS011;6608;48.790;9.198;2023-04-06T09:39:23;160.00;;;68.40;;
13083;SDS011;6608;48.790;9.198;2023-04-06T09:41:52;163.00;;;69.73;;
13083;SDS011;6608;48.790;9.198;2023-04-06T09:44:19;163.17;;;69.03;;
13083;SDS011;6608;48.790;9.198;2023-04-06T09:46:46;163.57;;;71.60;;
13083;SDS011;6608;48.790;9.198;2023-04-06T09:49:13;166.93;;;69.27;;
13083;SDS011;6608;48.790;9.198;2023-04-06T09:51:40;163.43;;;68.77;;
13083;SDS011;6608;48.790;9.198;2023-04-06T09:54:07;162.50;;;69.73;;
13083;SDS011;6608;48.790;9.198;2023-04-06T09:56:37;166.73;;;72.57;;
13083;SDS011;6608;48.790;9.198;2023-04-06T09:59:08;168.60;;;72.33;;
13083;SDS011;6608;48.790;9.198;2023-04-06T10:01:35;164.10;;;70.60;;
13083;SDS011;6608;48.790;9.198;2023-04-06T10:04:04;169.37;;;71.67;;
13083;SDS011;6608;48.790;9.198;2023-04-06T10:06:35;163.37;;;69.17;;
13083;SDS011;6608;48.790;9.198;2023-04-06T10:09:02;162.93;;;69.43;;
13083;SDS011;6608;48.790;9.198;2023-04-06T10:11:30;165.43;;;69.40;;
13083;SDS011;6608;48.790;9.198;2023-04-06T10:13:57;166.20;;;70.37;;
13083;SDS011;6608;48.790;9.198;2023-04-06T10:16:25;167.10;;;71.80;;
13083;SDS011;6608;48.790;9.198;2023-04-06T10:18:54;167.47;;;71.13;;
13083;SDS011;6608;48.790;9.198;2023-04-06T10:21:24;172.90;;;72.03;;
13083;SDS011;6608;48.790;9.198;2023-04-06T10:23:52;169.13;;;71.07;;
13083;SDS011;6608;48.790;9.198;2023-04-06T10:26:20;170.33;;;71.27;;
13083;SDS011;6608;48.790;9.198;2023-04-06T10:28:47;172.13;;;74.07;;
13083;SDS011;6608;48.790;9.198;2023-04-06T10:31:14;171.87;;;70.27;;
13083;SDS011;6608;48.790;9.198;2023-04-06T10:33:52;168.40;;;70.30;;
13083;SDS011;6608;48.790;9.198;2023-04-06T10:36:21;199.37;;;86.67;;
13083;SDS011;6608;48.790;9.198;2023-04-06T10:38:53;171.80;;;73.30;;
13083;SDS011;6608;48.790;9.198;2023-04-06T10:41:20;170.70;;;72.53;;
13083;SDS011;6608;48.790;9.198;2023-04-06T10:43:54;172.10;;;72.43;;
13083;SDS011;6608;48.790;9.198;2023-04-06T10:46:24;175.00;;;73.07;;
13083;SDS011;6608;48.790;9.198;2023-04-06T10:48:52;169.93;;;71.37;;
13083;SDS011;6608;48.790;9.198;2023-04-06T10:51:23;169.77;;;70.67;;
13083;SDS011;6608;48.790;9.198;2023-04-06T10:53:52;172.13;;;71.17;;
13083;SDS011;6608;48.790;9.198;2023-04-06T10:56:21;165.63;;;69.33;;
13083;SDS011;6608;48.790;9.198;2023-04-06T10:58:48;167.57;;;69.63;;
13083;SDS011;6608;48.790;9.198;2023-04-06T11:01:16;166.80;;;70.83;;
13083;SDS011;6608;48.790;9.198;2023-04-06T11:03:43;166.87;;;69.90;;
13083;SDS011;6608;48.790;9.198;2023-04-06T11:06:11;162.57;;;68.00;;
13083;SDS011;6608;48.790;9.198;2023-04-06T11:08:43;166.47;;;69.47;;
13083;SDS011;6608;48.790;9.198;2023-04-06T11:11:10;165.60;;;69.23;;
13083;SDS011;6608;48.790;9.198;2023-04-06T11:13:40;165.10;;;69.40;;
13083;SDS011;6608;48.790;9.198;2023-04-06T11:16:11;168.27;;;70.13;;
13083;SDS011;6608;48.790;9.198;2023-04-06T11:18:38;168.40;;;70.73;;
13083;SDS011;6608;48.790;9.198;2023-04-06T11:21:13;167.43;;;68.63;;
13083;SDS011;6608;48.790;9.198;2023-04-06T11:23:40;166.33;;;69.70;;
13083;SDS011;6608;48.790;9.198;2023-04-06T11:26:09;170.10;;;70.90;;
13083;SDS011;6608;48.790;9.198;2023-04-06T11:28:36;168.53;;;71.07;;
13083;SDS011;6608;48.790;9.198;2023-04-06T11:31:02;170.07;;;70.97;;
13083;SDS011;6608;48.790;9.198;2023-04-06T11:33:29;171.70;;;71.80;;
13083;SDS011;6608;48.790;9.198;2023-04-06T11:36:01;174.13;;;71.83;;
13083;SDS011;6608;48.790;9.198;2023-04-06T11:38:29;173.00;;;72.00;;
13083;SDS011;6608;48.790;9.198;2023-04-06T11:40:55;174.73;;;71.77;;
13083;SDS011;6608;48.790;9.198;2023-04-06T11:43:25;172.40;;;72.13;;
13083;SDS011;6608;48.790;9.198;2023-04-06T11:45:52;185.30;;;75.07;;
13083;SDS011;6608;48.790;9.198;2023-04-06T11:48:25;171.83;;;70.90;;
13083;SDS011;6608;48.790;9.198;2023-04-06T11:50:55;176.23;;;73.27;;
13083;SDS011;6608;48.790;9.198;2023-04-06T11:53:21;172.33;;;71.97;;
13083;SDS011;6608;48.790;9.198;2023-04-06T11:55:49;184.03;;;73.23;;
13083;SDS011;6608;48.790;9.198;2023-04-06T11:58:16;175.63;;;72.90;;
13083;SDS011;6608;48.790;9.198;2023-04-06T12:00:43;175.13;;;72.73;;
13083;SDS011;6608;48.790;9.198;2023-04-06T12:03:10;179.33;;;72.47;;
13083;SDS011;6608;48.790;9.198;2023-04-06T12:05:36;176.13;;;71.60;;
13083;SDS011;6608;48.790;9.198;2023-04-06T12:08:03;173.53;;;72.33;;
13083;SDS011;6608;48.790;9.198;2023-04-06T12:10:29;176.67;;;72.83;;
13083;SDS011;6608;48.790;9.198;2023-04-06T12:12:57;175.13;;;72.93;;
13083;SDS011;6608;48.790;9.198;2023-04-06T12:15:24;179.80;;;73.20;;
13083;SDS011;6608;48.790;9.198;2023-04-06T12:17:50;179.47;;;74.50;;
13083;SDS011;6608;48.790;9.198;2023-04-06T12:20:19;181.00;;;75.40;;
13083;SDS011;6608;48.790;9.198;2023-04-06T12:22:45;181.40;;;72.83;;
13083;SDS011;6608;48.790;9.198;2023-04-06T12:25:12;177.63;;;73.27;;
13083;SDS011;6608;48.790;9.198;2023-04-06T12:27:38;177.17;;;73.30;;
13083;SDS011;6608;48.790;9.198;2023-04-06T12:30:07;179.47;;;73.57;;
13083;SDS011;6608;48.790;9.198;2023-04-06T12:32:34;177.30;;;73.33;;
13083;SDS011;6608;48.790;9.198;2023-04-06T12:35:01;179.33;;;74.47;;
13083;SDS011;6608;48.790;9.198;2023-04-06T12:37:27;177.17;;;73.20;;
13083;SDS011;6608;48.790;9.198;2023-04-06T12:39:53;175.73;;;70.27;;
13083;SDS011;6608;48.790;9.198;2023-04-06T12:42:20;173.63;;;70.27;;
13083;SDS011;6608;48.790;9.198;2023-04-06T12:44:46;174.13;;;70.33;;
13083;SDS011;6608;48.790;9.198;2023-04-06T12:47:14;177.23;;;71.40;;
13083;SDS011;6608;48.790;9.198;2023-04-06T12:49:41;176.13;;;72.47;;
13083;SDS011;6608;48.790;9.198;2023-04-06T12:52:07;176.73;;;72.33;;
13083;SDS011;6608;48.790;9.198;2023-04-06T12:54:34;177.77;;;72.73;;
13083;SDS011;6608;48.790;9.198;2023-04-06T12:57:01;174.57;;;71.97;;
13083;SDS011;6608;48.790;9.198;2023-04-06T12:59:27;175.17;;;72.43;;
13083;SDS011;6608;48.790;9.198;2023-04-06T13:01:59;174.93;;;73.03;;
13083;SDS011;6608;48.790;9.198;2023-04-06T13:04:27;172.70;;;71.63;;
13083;SDS011;6608;48.790;9.198;2023-04-06T13:06:54;174.17;;;72.97;;
13083;SDS011;6608;48.790;9.198;2023-04-06T13:09:20;177.80;;;73.80;;
13083;SDS011;6608;48.790;9.198;2023-04-06T13:11:47;174.40;;;71.97;;
13083;SDS011;6608;48.790;9.198;2023-04-06T13:14:13;173.13;;;72.07;;
13083;SDS011;6608;48.790;9.198;2023-04-06T13:16:40;172.67;;;70.30;;
13083;SDS011;6608;48.790;9.198;2023-04-06T13:19:07;172.67;;;71.93;;
13083;SDS011;6608;48.790;9.198;2023-04-06T13:21:37;169.60;;;68.20;;
13083;SDS011;6608;48.790;9.198;2023-04-06T13:24:03;169.23;;;69.57;;
13083;SDS011;6608;48.790;9.198;2023-04-06T13:26:31;168.90;;;68.40;;
13083;SDS011;6608;48.790;9.198;2023-04-06T13:28:58;167.33;;;68.60;;
13083;SDS011;6608;48.790;9.198;2023-04-06T13:31:25;166.03;;;68.20;;
13083;SDS011;6608;48.790;9.198;2023-04-06T13:33:52;167.97;;;68.53;;
13083;SDS011;6608;48.790;9.198;2023-04-06T13:36:18;171.07;;;69.13;;
13083;SDS011;6608;48.790;9.198;2023-04-06T13:38:46;162.97;;;66.20;;
13083;SDS011;6608;48.790;9.198;2023-04-06T13:41:17;166.13;;;68.40;;
13083;SDS011;6608;48.790;9.198;2023-04-06T13:43:43;167.07;;;70.60;;
13083;SDS011;6608;48.790;9.198;2023-04-06T13:46:10;172.43;;;73.47;;
13083;SDS011;6608;48.790;9.198;2023-04-06T13:48:37;166.63;;;68.63;;
13083;SDS011;6608;48.790;9.198;2023-04-06T13:51:09;169.27;;;69.10;;
13083;SDS011;6608;48.790;9.198;2023-04-06T13:53:36;169.73;;;71.03;;
13083;SDS011;6608;48.790;9.198;2023-04-06T13:56:04;172.50;;;74.17;;
13083;SDS011;6608;48.790;9.198;2023-04-06T13:58:30;168.73;;;69.70;;
13083;SDS011;6608;48.790;9.198;2023-04-06T14:01:01;164.73;;;68.03;;
13083;SDS011;6608;48.790;9.198;2023-04-06T14:03:28;168.50;;;69.23;;
13083;SDS011;6608;48.790;9.198;2023-04-06T14:05:54;168.00;;;70.13;;
13083;SDS011;6608;48.790;9.198;2023-04-06T14:08:21;168.70;;;69.93;;
13083;SDS011;6608;48.790;9.198;2023-04-06T14:10:47;168.33;;;68.13;;
13083;SDS011;6608;48.790;9.198;2023-04-06T14:13:15;164.60;;;68.17;;
13083;SDS011;6608;48.790;9.198;2023-04-06T14:15:42;163.63;;;69.53;;
13083;SDS011;6608;48.790;9.198;2023-04-06T14:18:08;162.50;;;67.43;;
13083;SDS011;6608;48.790;9.198;2023-04-06T14:20:35;170.33;;;69.70;;